createdAt,value
2019-03-20T00:02:12.493Z,99211.58
2019-03-20T00:04:49.615Z,99211.88
2019-03-20T00:07:16.690Z,99213.50
2019-03-20T00:09:47.435Z,99216.50
2019-03-20T00:12:17.840Z,99221.41
2019-03-20T00:14:47.346Z,99217.59
2019-03-20T00:17:16.748Z,99223.86
2019-03-20T00:19:47.022Z,99217.87
2019-03-20T00:22:16.375Z,99224.72
2019-03-20T00:24:46.768Z,99217.84
2019-03-20T00:27:17.266Z,99217.84
2019-03-20T00:29:48.784Z,99224.97
2019-03-20T00:32:19.237Z,99223.55
2019-03-20T00:34:48.637Z,99224.66
2019-03-20T00:37:21.204Z,99219.45
2019-03-20T00:39:51.566Z,99215.89
2019-03-20T00:42:22.005Z,99215.36
2019-03-20T00:44:52.426Z,99222.70
2019-03-20T00:47:21.822Z,99225.96
2019-03-20T00:49:52.344Z,99219.16
2019-03-20T00:52:24.364Z,99217.53
2019-03-20T00:54:54.773Z,99222.48
2019-03-20T00:57:24.141Z,99220.27
2019-03-20T00:59:54.533Z,99221.33
2019-03-20T01:02:23.943Z,99215.63
2019-03-20T01:04:53.377Z,99213.72
2019-03-20T01:07:23.753Z,99213.69
2019-03-20T01:09:52.577Z,99215.35
2019-03-20T01:12:22.991Z,99216.42
2019-03-20T01:14:52.369Z,99219.20
2019-03-20T01:17:23.309Z,99206.06
2019-03-20T01:19:53.715Z,99209.05
2019-03-20T01:22:24.106Z,99212.07
2019-03-20T01:24:53.514Z,99217.53
2019-03-20T01:27:25.756Z,99214.23
2019-03-20T01:29:56.161Z,99212.02
2019-03-20T01:32:26.565Z,99209.83
2019-03-20T01:34:56.953Z,99216.64
2019-03-20T01:37:25.703Z,99213.38
2019-03-20T01:39:55.064Z,99214.97
2019-03-20T01:42:25.420Z,99217.95
2019-03-20T01:44:57.697Z,99210.80
2019-03-20T01:47:28.201Z,99215.70
2019-03-20T01:49:57.681Z,99214.07
2019-03-20T01:52:27.092Z,99225.25
2019-03-20T01:54:57.440Z,99215.95
2019-03-20T01:57:26.797Z,99218.43
2019-03-20T01:59:57.184Z,99218.39
2019-03-20T02:02:26.566Z,99220.02
2019-03-20T02:04:57.032Z,99222.77
2019-03-20T02:07:26.835Z,99222.19
2019-03-20T02:09:56.181Z,99224.66
2019-03-20T02:12:25.583Z,99223.51
2019-03-20T02:14:56.298Z,99226.23
2019-03-20T02:17:26.635Z,99222.44
2019-03-20T02:19:57.069Z,99224.63
2019-03-20T02:22:27.470Z,99220.54
2019-03-20T02:24:57.884Z,99222.73
2019-03-20T02:27:27.246Z,99220.27
2019-03-20T02:29:57.848Z,99223.02
2019-03-20T02:32:28.240Z,99213.73
2019-03-20T02:34:59.093Z,99224.36
2019-03-20T02:37:29.484Z,99221.10
2019-03-20T02:39:59.997Z,99223.80
2019-03-20T02:42:31.547Z,99229.16
2019-03-20T02:45:01.956Z,99221.86
2019-03-20T02:47:31.361Z,99226.80
2019-03-20T02:50:02.396Z,99226.56
2019-03-20T02:52:31.864Z,99225.19
2019-03-20T02:55:00.754Z,99228.16
2019-03-20T02:57:31.299Z,99231.45
2019-03-20T03:00:02.449Z,99228.99
2019-03-20T03:02:33.039Z,99233.38
2019-03-20T03:05:02.434Z,99224.34
2019-03-20T03:07:32.783Z,99231.96
2019-03-20T03:10:03.187Z,99236.08
2019-03-20T03:12:33.591Z,99242.62
2019-03-20T03:15:02.402Z,99234.75
2019-03-20T03:17:34.272Z,99235.81
2019-03-20T03:20:04.809Z,99234.98
2019-03-20T03:22:35.225Z,99245.89
2019-03-20T03:25:08.248Z,99246.43
2019-03-20T03:27:41.664Z,99241.27
2019-03-20T03:30:19.086Z,99249.45
2019-03-20T03:32:49.611Z,99248.63
2019-03-20T03:35:19.750Z,99251.63
2019-03-20T03:37:49.565Z,99249.69
2019-03-20T03:40:21.411Z,99245.04
2019-03-20T03:42:50.907Z,99252.95
2019-03-20T03:45:21.401Z,99254.03
2019-03-20T03:47:53.203Z,99244.24
2019-03-20T03:50:23.838Z,99255.91
2019-03-20T03:52:53.243Z,99259.22
2019-03-20T03:55:24.826Z,99252.93
2019-03-20T03:57:55.412Z,99257.88
2019-03-20T04:00:25.826Z,99258.95
2019-03-20T04:02:55.217Z,99266.27
2019-03-20T04:05:24.606Z,99263.52
2019-03-20T04:07:55.058Z,99263.25
2019-03-20T04:10:26.107Z,99266.52
2019-03-20T04:12:55.503Z,99268.14
2019-03-20T04:15:25.778Z,99268.44
2019-03-20T04:17:55.265Z,99270.91
2019-03-20T04:20:27.600Z,99282.88
2019-03-20T04:23:00.002Z,99272.83
2019-03-20T04:25:30.450Z,99287.80
2019-03-20T04:28:00.744Z,99283.73
2019-03-20T04:30:29.509Z,99284.24
2019-03-20T04:32:59.954Z,99282.91
2019-03-20T04:35:29.359Z,99284.00
2019-03-20T04:37:59.663Z,99283.17
2019-03-20T04:40:30.233Z,99281.81
2019-03-20T04:42:59.627Z,99284.55
2019-03-20T04:45:29.059Z,99288.07
2019-03-20T04:47:59.448Z,99284.77
2019-03-20T04:50:29.860Z,99286.11
2019-03-20T04:53:00.294Z,99284.72
2019-03-20T04:55:31.235Z,99284.72
2019-03-20T04:58:00.589Z,99281.92
2019-03-20T05:00:29.919Z,99286.52
2019-03-20T05:03:00.988Z,99292.73
2019-03-20T05:05:30.341Z,99292.39
2019-03-20T05:08:00.845Z,99290.69
2019-03-20T05:10:31.191Z,99290.42
2019-03-20T05:13:01.583Z,99285.77
2019-03-20T05:15:30.995Z,99292.77
2019-03-20T05:18:00.404Z,99301.78
2019-03-20T05:20:30.756Z,99305.25
2019-03-20T05:23:08.674Z,99313.20
2019-03-20T05:25:38.043Z,99306.66
2019-03-20T05:28:11.571Z,99316.02
2019-03-20T05:30:43.966Z,99319.88
2019-03-20T05:33:13.449Z,99323.62
2019-03-20T05:35:43.836Z,99324.52
2019-03-20T05:38:15.370Z,99322.59
2019-03-20T05:40:45.806Z,99328.11
2019-03-20T05:43:15.202Z,99324.94
2019-03-20T05:45:47.441Z,99331.45
2019-03-20T05:48:17.856Z,99337.28
2019-03-20T05:50:47.361Z,99334.07
2019-03-20T05:53:17.717Z,99332.78
2019-03-20T05:55:48.126Z,99337.14
2019-03-20T05:58:19.055Z,99340.06
2019-03-20T06:00:49.457Z,99337.99
2019-03-20T06:03:19.971Z,99338.42
2019-03-20T06:05:49.476Z,99332.23
2019-03-20T06:08:19.838Z,99333.13
2019-03-20T06:10:49.246Z,99336.43
2019-03-20T06:13:18.709Z,99339.91
2019-03-20T06:15:48.075Z,99348.38
2019-03-20T06:18:18.551Z,99343.17
2019-03-20T06:20:49.530Z,99347.56
2019-03-20T06:23:17.978Z,99342.05
2019-03-20T06:25:51.401Z,99351.30
2019-03-20T06:28:24.232Z,99352.98
2019-03-20T06:30:56.099Z,99353.41
2019-03-20T06:33:25.506Z,99353.20
2019-03-20T06:35:54.925Z,99358.45
2019-03-20T06:38:25.436Z,99361.37
2019-03-20T06:40:57.677Z,99367.77
2019-03-20T06:43:27.130Z,99368.94
2019-03-20T06:45:57.807Z,99365.72
2019-03-20T06:48:28.203Z,99377.36
2019-03-20T06:50:58.715Z,99375.27
2019-03-20T06:53:28.345Z,99378.39
2019-03-20T06:55:58.809Z,99378.17
2019-03-20T06:58:29.634Z,99386.30
2019-03-20T07:01:07.556Z,99383.74
2019-03-20T07:03:53.202Z,99383.02
2019-03-20T07:06:43.690Z,99383.70
2019-03-20T07:09:28.209Z,99385.65
2019-03-20T07:11:58.172Z,99381.97
2019-03-20T07:14:28.883Z,99388.80
2019-03-20T07:17:00.951Z,99381.02
2019-03-20T07:19:31.459Z,99389.54
2019-03-20T07:22:00.301Z,99386.16
2019-03-20T07:24:30.830Z,99390.86
2019-03-20T07:27:01.321Z,99392.00
2019-03-20T07:29:30.908Z,99394.40
2019-03-20T07:32:00.312Z,99392.50
2019-03-20T07:34:30.634Z,99396.47
2019-03-20T07:37:00.019Z,99401.80
2019-03-20T07:39:30.733Z,99406.86
2019-03-20T07:42:01.101Z,99401.59
2019-03-20T07:44:31.858Z,99404.36
2019-03-20T07:47:01.394Z,99397.46
2019-03-20T07:49:32.063Z,99407.78
2019-03-20T07:52:03.594Z,99413.96
2019-03-20T07:54:33.973Z,99414.14
2019-03-20T07:57:03.632Z,99413.63
2019-03-20T07:59:34.081Z,99412.11
2019-03-20T08:02:05.117Z,99403.92
2019-03-20T08:04:35.524Z,99408.05
2019-03-20T08:07:04.896Z,99412.50
2019-03-20T08:09:36.668Z,99410.79
2019-03-20T08:12:06.162Z,99406.37
2019-03-20T08:14:36.619Z,99419.52
2019-03-20T08:17:06.085Z,99414.63
2019-03-20T08:19:35.490Z,99419.13
2019-03-20T08:22:04.964Z,99416.20
2019-03-20T08:24:34.915Z,99417.27
2019-03-20T08:27:05.418Z,99425.41
2019-03-20T08:29:35.930Z,99424.17
2019-03-20T08:32:06.254Z,99426.72
2019-03-20T08:34:37.152Z,99422.59
2019-03-20T08:37:07.555Z,99426.94
2019-03-20T08:39:37.063Z,99415.88
2019-03-20T08:42:07.736Z,99421.55
2019-03-20T08:44:38.352Z,99421.77
2019-03-20T08:47:10.740Z,99429.52
2019-03-20T08:49:41.311Z,99429.02
2019-03-20T08:52:15.523Z,99424.12
2019-03-20T08:54:44.929Z,99426.56
2019-03-20T08:57:14.298Z,99432.45
2019-03-20T08:59:45.069Z,99422.52
2019-03-20T09:02:14.574Z,99428.46
2019-03-20T09:04:46.819Z,99427.46
2019-03-20T09:07:15.289Z,99425.70
2019-03-20T09:09:45.958Z,99421.67
2019-03-20T09:12:15.365Z,99432.23
2019-03-20T09:14:45.011Z,99424.53
2019-03-20T09:17:16.468Z,99423.05
2019-03-20T09:19:46.862Z,99424.03
2019-03-20T09:22:17.360Z,99421.94
2019-03-20T09:24:47.775Z,99430.28
2019-03-20T09:27:17.171Z,99431.18
2019-03-20T09:29:47.759Z,99427.94
2019-03-20T09:32:18.145Z,99429.16
2019-03-20T09:34:47.634Z,99433.80
2019-03-20T09:37:17.287Z,99425.77
2019-03-20T09:39:47.690Z,99431.20
2019-03-20T09:42:19.310Z,99438.17
2019-03-20T09:44:51.275Z,99437.30
2019-03-20T09:47:22.298Z,99442.45
2019-03-20T09:49:53.342Z,99432.09
2019-03-20T09:52:23.803Z,99442.77
2019-03-20T09:54:56.462Z,99450.60
2019-03-20T09:57:26.902Z,99431.39
2019-03-20T09:59:57.306Z,99440.47
2019-03-20T10:02:27.818Z,99440.27
2019-03-20T10:04:58.328Z,99439.58
2019-03-20T10:07:28.711Z,99443.98
2019-03-20T10:09:59.089Z,99440.75
2019-03-20T10:12:30.011Z,99445.27
2019-03-20T10:15:02.664Z,99442.48
2019-03-20T10:17:33.075Z,99444.63
2019-03-20T10:20:03.694Z,99449.17
2019-03-20T10:22:34.194Z,99446.69
2019-03-20T10:25:03.684Z,99442.48
2019-03-20T10:27:36.258Z,99446.89
2019-03-20T10:30:08.195Z,99444.73
2019-03-20T10:32:40.530Z,99451.45
2019-03-20T10:35:12.707Z,99443.34
2019-03-20T10:37:43.094Z,99440.14
2019-03-20T10:40:28.621Z,99439.45
2019-03-20T10:42:58.140Z,99452.22
2019-03-20T10:45:27.607Z,99453.91
2019-03-20T10:47:57.111Z,99452.22
2019-03-20T10:50:31.923Z,99458.82
2019-03-20T10:53:01.517Z,99453.12
2019-03-20T10:55:30.354Z,99460.61
2019-03-20T10:57:59.799Z,99455.62
2019-03-20T11:00:30.905Z,99452.27
2019-03-20T11:03:01.573Z,99454.11
2019-03-20T11:05:33.134Z,99455.78
2019-03-20T11:08:02.713Z,99462.31
2019-03-20T11:10:33.121Z,99459.43
2019-03-20T11:13:03.836Z,99459.88
2019-03-20T11:15:34.404Z,99456.94
2019-03-20T11:18:06.448Z,99458.33
2019-03-20T11:20:38.796Z,99456.55
2019-03-20T11:23:09.307Z,99454.23
2019-03-20T11:25:38.923Z,99453.31
2019-03-20T11:28:09.505Z,99450.72
2019-03-20T11:30:38.898Z,99454.20
2019-03-20T11:33:08.551Z,99454.38
2019-03-20T11:35:38.249Z,99453.89
2019-03-20T11:38:08.722Z,99449.17
2019-03-20T11:40:43.295Z,99440.30
2019-03-20T11:43:12.807Z,99438.77
2019-03-20T11:45:42.273Z,99433.52
2019-03-20T11:48:11.751Z,99432.52
2019-03-20T11:50:43.379Z,99425.52
2019-03-20T11:53:13.861Z,99425.56
2019-03-20T11:55:44.266Z,99433.80
2019-03-20T11:58:17.390Z,99431.91
2019-03-20T12:00:47.881Z,99423.42
2019-03-20T12:03:18.138Z,99423.40
2019-03-20T12:05:48.932Z,99421.29
2019-03-20T12:08:21.202Z,99412.48
2019-03-20T12:10:51.607Z,99414.65
2019-03-20T12:13:22.432Z,99402.77
2019-03-20T12:15:54.304Z,99408.30
2019-03-20T12:18:23.712Z,99400.11
2019-03-20T12:20:53.174Z,99401.70
2019-03-20T12:23:23.739Z,99397.68
2019-03-20T12:25:54.144Z,99398.29
2019-03-20T12:28:25.744Z,99397.05
2019-03-20T12:30:55.105Z,99396.84
2019-03-20T12:33:24.529Z,99398.23
2019-03-20T12:35:53.911Z,99398.12
2019-03-20T12:38:24.207Z,99393.14
2019-03-20T12:40:54.804Z,99387.28
2019-03-20T12:43:25.212Z,99379.80
2019-03-20T12:45:54.684Z,99390.00
2019-03-20T12:48:25.183Z,99380.81
2019-03-20T12:50:56.910Z,99378.03
2019-03-20T12:53:35.406Z,99377.73
2019-03-20T12:56:04.880Z,99370.53
2019-03-20T12:58:36.937Z,99363.73
2019-03-20T13:01:08.274Z,99370.41
2019-03-20T13:03:38.907Z,99365.38
2019-03-20T13:06:07.678Z,99377.46
2019-03-20T13:08:40.529Z,99365.55
2019-03-20T13:11:12.178Z,99361.55
2019-03-20T13:13:41.572Z,99358.67
2019-03-20T13:16:12.094Z,99356.41
2019-03-20T13:18:43.887Z,99358.38
2019-03-20T13:21:15.788Z,99362.77
2019-03-20T13:23:45.526Z,99354.44
2019-03-20T13:26:16.411Z,99356.42
2019-03-20T13:28:47.339Z,99344.59
2019-03-20T13:31:19.899Z,99347.44
2019-03-20T13:37:19.451Z,99347.38
2019-03-20T13:39:51.647Z,99347.75
2019-03-20T13:42:22.456Z,99350.39
2019-03-20T13:48:20.922Z,99340.75
2019-03-20T13:50:52.998Z,99347.96
2019-03-20T13:53:23.863Z,99342.66
2019-03-20T13:55:53.413Z,99344.27
2019-03-20T13:58:23.914Z,99348.66
2019-03-20T14:00:54.426Z,99348.95
2019-03-20T14:03:24.408Z,99349.62
2019-03-20T14:05:55.642Z,99346.27
2019-03-20T14:08:26.043Z,99341.22
2019-03-20T14:10:55.528Z,99339.37
2019-03-20T14:13:24.932Z,99340.44
2019-03-20T14:15:54.357Z,99342.95
2019-03-20T14:18:24.859Z,99339.05
2019-03-20T14:20:55.712Z,99336.36
2019-03-20T14:23:26.179Z,99337.16
2019-03-20T14:25:55.554Z,99332.53
2019-03-20T14:28:25.172Z,99325.11
2019-03-20T14:30:54.054Z,99320.05
2019-03-20T14:33:23.783Z,99321.19
2019-03-20T14:35:53.095Z,99317.76
2019-03-20T14:38:24.238Z,99313.59
2019-03-20T14:40:54.843Z,99314.35
2019-03-20T14:43:25.361Z,99318.52
2019-03-20T14:45:55.862Z,99313.13
2019-03-20T14:48:26.308Z,99310.69
2019-03-20T14:50:56.782Z,99309.06
2019-03-20T14:53:28.552Z,99317.45
2019-03-20T14:55:58.986Z,99318.09
2019-03-20T14:58:27.782Z,99311.25
2019-03-20T15:01:00.174Z,99306.70
2019-03-20T15:03:30.688Z,99299.66
2019-03-20T15:06:01.415Z,99305.14
2019-03-20T15:08:31.702Z,99313.40
2019-03-20T15:11:02.231Z,99308.16
2019-03-20T15:13:31.831Z,99308.81
2019-03-20T15:16:08.272Z,99304.89
2019-03-20T15:18:38.654Z,99305.38
2019-03-20T15:21:08.243Z,99305.32
2019-03-20T15:23:37.643Z,99310.48
2019-03-20T15:26:08.301Z,99309.76
2019-03-20T15:28:40.186Z,99318.66
2019-03-20T15:31:10.905Z,99307.74
2019-03-20T15:33:40.681Z,99323.03
2019-03-20T15:36:10.524Z,99313.88
2019-03-20T15:38:42.713Z,99318.56
2019-03-20T15:41:13.939Z,99317.81
2019-03-20T15:43:46.001Z,99315.27
2019-03-20T15:46:15.410Z,99311.75
2019-03-20T15:48:46.074Z,99317.45
2019-03-20T15:51:17.891Z,99313.73
2019-03-20T15:53:46.837Z,99314.31
2019-03-20T15:56:16.304Z,99320.13
2019-03-20T15:58:47.997Z,99333.20
2019-03-20T16:01:16.810Z,99323.75
2019-03-20T16:03:49.650Z,99320.18
2019-03-20T16:06:20.045Z,99324.74
2019-03-20T16:08:51.671Z,99328.27
2019-03-20T16:11:22.193Z,99331.41
2019-03-20T16:13:52.587Z,99331.78
2019-03-20T16:16:24.242Z,99331.23
2019-03-20T16:18:53.650Z,99333.81
2019-03-20T16:21:25.009Z,99332.56
2019-03-20T16:23:54.348Z,99334.88
2019-03-20T16:26:24.725Z,99332.70
2019-03-20T16:28:54.305Z,99334.14
2019-03-20T16:31:24.691Z,99334.14
2019-03-20T16:33:54.175Z,99343.42
2019-03-20T16:36:25.137Z,99336.50
2019-03-20T16:38:56.133Z,99336.88
2019-03-20T16:41:28.196Z,99338.94
2019-03-20T16:43:58.601Z,99331.20
2019-03-20T16:46:28.077Z,99329.40
2019-03-20T16:49:00.456Z,99331.59
2019-03-20T16:51:31.076Z,99334.90
2019-03-20T16:54:01.791Z,99335.02
2019-03-20T16:56:32.202Z,99343.16
2019-03-20T16:59:02.606Z,99340.69
2019-03-20T17:01:32.091Z,99347.45
2019-03-20T17:04:01.485Z,99348.08
2019-03-20T17:06:31.938Z,99342.20
2019-03-20T17:09:02.608Z,99338.69
2019-03-20T17:11:38.651Z,99345.98
2019-03-20T17:14:07.438Z,99350.34
2019-03-20T17:16:42.685Z,99348.11
2019-03-20T17:19:10.229Z,99345.18
2019-03-20T17:21:40.591Z,99344.45
2019-03-20T17:24:09.998Z,99351.77
2019-03-20T17:26:39.407Z,99350.12
2019-03-20T17:29:09.365Z,99354.98
2019-03-20T17:31:38.927Z,99354.28
2019-03-20T17:34:07.654Z,99360.14
2019-03-20T17:36:37.018Z,99367.19
2019-03-20T17:39:08.878Z,99371.36
2019-03-20T17:41:42.315Z,99367.77
2019-03-20T17:44:12.729Z,99370.96
2019-03-20T17:46:43.217Z,99368.30
2019-03-20T17:49:12.633Z,99370.34
2019-03-20T17:51:43.227Z,99373.16
2019-03-20T17:54:13.612Z,99379.31
2019-03-20T17:56:43.081Z,99385.02
2019-03-20T17:59:14.062Z,99384.74
2019-03-20T18:01:43.519Z,99384.28
2019-03-20T18:04:12.944Z,99377.80
2019-03-20T18:06:43.311Z,99382.04
2019-03-20T18:09:12.750Z,99389.17
2019-03-20T18:11:47.361Z,99388.92
2019-03-20T18:14:15.150Z,99387.62
2019-03-20T18:16:45.550Z,99386.88
2019-03-20T18:19:16.050Z,99391.63
2019-03-20T18:21:45.455Z,99393.98
2019-03-20T18:24:15.870Z,99392.92
2019-03-20T18:26:47.821Z,99394.44
2019-03-20T18:29:17.255Z,99397.58
2019-03-20T18:31:47.710Z,99403.61
2019-03-20T18:34:17.083Z,99402.88
2019-03-20T18:36:46.475Z,99402.41
2019-03-20T18:39:20.638Z,99403.91
2019-03-20T18:41:57.683Z,99412.20
2019-03-20T18:44:22.616Z,99420.61
2019-03-20T18:46:54.845Z,99422.83
2019-03-20T18:49:23.579Z,99422.58
2019-03-20T18:51:55.977Z,99425.75
2019-03-20T18:54:28.566Z,99434.02
2019-03-20T18:56:57.927Z,99431.02
2019-03-20T18:59:27.352Z,99416.20
2019-03-20T19:01:57.914Z,99427.25
2019-03-20T19:04:28.324Z,99426.58
2019-03-20T19:07:00.805Z,99439.02
2019-03-20T19:09:30.315Z,99439.31
2019-03-20T19:12:08.626Z,99438.53
2019-03-20T19:14:31.600Z,99439.91
2019-03-20T19:17:01.077Z,99445.98
2019-03-20T19:19:33.150Z,99440.82
2019-03-20T19:22:05.073Z,99444.44
2019-03-20T19:24:35.503Z,99446.94
2019-03-20T19:27:06.567Z,99447.80
2019-03-20T19:29:36.076Z,99449.45
2019-03-20T19:32:06.527Z,99450.00
2019-03-20T19:34:37.047Z,99452.77
2019-03-20T19:37:52.509Z,99451.98
2019-03-20T19:40:24.760Z,99451.14
2019-03-20T19:42:54.153Z,99457.23
2019-03-20T19:45:23.514Z,99462.98
2019-03-20T19:47:52.948Z,99460.00
2019-03-20T19:50:24.558Z,99465.48
2019-03-20T19:52:53.964Z,99456.45
2019-03-20T19:55:24.465Z,99465.73
2019-03-20T19:57:53.952Z,99467.41
2019-03-20T20:00:27.989Z,99476.95
2019-03-20T20:02:59.377Z,99469.03
2019-03-20T20:05:30.054Z,99467.17
2019-03-20T20:08:00.472Z,99474.03
2019-03-20T20:10:32.851Z,99482.03
2019-03-20T20:13:02.254Z,99481.80
2019-03-20T20:15:34.695Z,99487.00
2019-03-20T20:18:05.111Z,99494.67
2019-03-20T20:20:39.488Z,99488.63
2019-03-20T20:23:09.903Z,99494.95
2019-03-20T20:25:40.304Z,99500.17
2019-03-20T20:28:11.396Z,99496.60
2019-03-20T20:30:43.476Z,99493.60
2019-03-20T20:33:12.880Z,99494.97
2019-03-20T20:35:42.276Z,99500.44
2019-03-20T20:38:12.751Z,99493.59
2019-03-20T20:40:43.122Z,99495.77
2019-03-20T20:43:13.553Z,99497.14
2019-03-20T20:45:45.040Z,99501.53
2019-03-20T20:48:15.417Z,99503.41
2019-03-20T20:50:45.836Z,99505.61
2019-03-20T20:53:15.174Z,99500.13
2019-03-20T20:55:47.670Z,99510.80
2019-03-20T20:58:18.035Z,99508.88
2019-03-20T21:00:48.799Z,99508.59
2019-03-20T21:03:19.188Z,99523.07
2019-03-20T21:05:48.682Z,99518.98
2019-03-20T21:08:19.021Z,99516.23
2019-03-20T21:10:48.866Z,99519.21
2019-03-20T21:13:19.476Z,99515.36
2019-03-20T21:15:50.290Z,99524.10
2019-03-20T21:18:49.629Z,99525.17
2019-03-20T21:21:19.982Z,99523.81
2019-03-20T21:24:22.960Z,99522.98
2019-03-20T21:27:13.039Z,99513.13
2019-03-20T21:30:04.927Z,99512.03
2019-03-20T21:32:45.316Z,99512.56
2019-03-20T21:35:43.055Z,99518.84
2019-03-20T21:38:11.736Z,99519.59
2019-03-20T21:40:47.667Z,99519.02
2019-03-20T21:43:40.369Z,99521.43
2019-03-20T21:46:21.341Z,99531.33
2019-03-20T21:48:52.089Z,99520.36
2019-03-20T21:51:21.569Z,99521.95
2019-03-20T21:54:09.998Z,99521.13
2019-03-20T21:56:54.492Z,99519.77
2019-03-20T21:59:43.752Z,99523.88
2019-03-20T22:02:44.670Z,99522.78
2019-03-20T22:05:42.576Z,99522.80
2019-03-20T22:08:13.155Z,99517.33
2019-03-20T22:11:01.297Z,99525.70
2019-03-20T22:13:40.608Z,99520.47
2019-03-20T22:16:33.443Z,99522.34
2019-03-20T22:19:40.410Z,99516.29
2019-03-20T22:22:24.977Z,99520.41
2019-03-20T22:25:13.899Z,99526.15
2019-03-20T22:27:51.721Z,99528.56
2019-03-20T22:30:21.091Z,99536.78
2019-03-20T22:33:10.796Z,99535.63
2019-03-20T22:35:43.361Z,99538.00
2019-03-20T22:38:28.084Z,99545.13
2019-03-20T22:41:16.567Z,99544.27
2019-03-20T22:43:51.925Z,99544.53
2019-03-20T22:46:29.224Z,99550.27
2019-03-20T22:49:04.758Z,99547.80
2019-03-20T22:51:49.295Z,99546.67
2019-03-20T22:54:40.709Z,99544.47
2019-03-20T22:57:12.519Z,99546.37
2019-03-20T22:59:44.909Z,99548.46
2019-03-20T23:02:29.312Z,99554.48
2019-03-20T23:05:01.872Z,99552.19
2019-03-20T23:07:31.918Z,99550.28
2019-03-20T23:10:02.418Z,99548.66
2019-03-20T23:12:32.786Z,99546.19
2019-03-20T23:15:03.230Z,99543.76
2019-03-20T23:17:32.594Z,99548.95
2019-03-20T23:20:03.854Z,99549.22
2019-03-20T23:22:34.241Z,99552.48
2019-03-20T23:25:04.642Z,99541.45
2019-03-20T23:27:34.041Z,99543.69
2019-03-20T23:30:04.629Z,99539.25
2019-03-20T23:32:34.024Z,99542.73
2019-03-20T23:35:04.693Z,99540.80
2019-03-20T23:37:35.226Z,99536.63
2019-03-20T23:40:07.379Z,99539.76
2019-03-20T23:42:37.746Z,99543.28
2019-03-20T23:45:10.221Z,99548.16
2019-03-20T23:47:41.740Z,99546.84
2019-03-20T23:50:13.908Z,99544.95
2019-03-20T23:52:44.254Z,99543.37
2019-03-20T23:55:14.654Z,99541.11
2019-03-20T23:57:44.017Z,99549.52
